Dades meteomassalio
Diari Summary for Juny 29, 2017 Units:  English    Metric   Both
« Previous Day
Next Day »
Diari Semanal Mensual Anual Personalitzat
  Maxima: Minima: Mijana:
Temperatura: TemperatureC °F 15.3 °F 19.8 °F
Rosada: DewpointC °F 2.2 °F 7.5 °F
Humitat: Humidity % 25 % 47 %
Velocitat del vent: WindSpeedKMH mph 0.0 mph 21.7 mph
Racha vent: WindSpeedGustKMH mph - -
Vent:- - WNW
Pressio: PressurehPa in 1006.7 in -
Pluja: 0.0 in    
Historical Graphs
 
 
Tabular Data for Juny 29, 2017
Time Temperature Dew Point Pressure Wind Wind Speed Wind Gust Humidity Rainfall Rate (Hourly) solar Conditions
TemperatureC °F DewpointC °F PressurehPa in Calm     Humidity % HourlyPrecipMM in SolarRadiationWatts/m^2 W/m2 Conditions
00:00 22.1 °F 11.5 °F 1006.7 in WNW 25.9 mph 25.9 mph 51 % 0.0 in 0.0 W/m2 CLR
00:01 22.1 °F 11.5 °F 1006.7 in NNW 27.8 mph 27.8 mph 51 % 0.0 in 0.0 W/m2 CLR
00:06 21.9 °F 11.3 °F 1006.7 in NW 25.9 mph 25.9 mph 51 % 0.0 in 0.0 W/m2 CLR
00:11 21.8 °F 11.2 °F 1007.0 in NW 25.9 mph 25.9 mph 51 % 0.0 in 0.0 W/m2 CLR
00:16 21.7 °F 11.1 °F 1007.0 in NW 27.8 mph 27.8 mph 51 % 0.0 in 0.0 W/m2 CLR
00:21 21.6 °F 11.0 °F 1007.0 in NNW 22.2 mph 22.2 mph 51 % 0.0 in 0.0 W/m2 CLR
00:26 21.4 °F 10.8 °F 1007.3 in NW 24.1 mph 24.1 mph 51 % 0.0 in 0.0 W/m2 CLR
00:31 21.2 °F 10.4 °F 1007.3 in NW 20.4 mph 20.4 mph 50 % 0.0 in 0.0 W/m2 CLR
00:36 21.0 °F 10.2 °F 1007.3 in NNW 18.5 mph 18.5 mph 50 % 0.0 in 0.0 W/m2 CLR
00:41 20.8 °F 10.3 °F 1007.3 in NNW 25.9 mph 25.9 mph 51 % 0.0 in 0.0 W/m2 CLR
00:46 20.7 °F 9.9 °F 1007.7 in NNW 18.5 mph 18.5 mph 50 % 0.0 in 0.0 W/m2 CLR
00:51 20.6 °F 10.1 °F 1007.7 in NNW 22.2 mph 22.2 mph 51 % 0.0 in 0.0 W/m2 CLR
00:56 20.4 °F 9.7 °F 1007.7 in NNW 31.5 mph 31.5 mph 50 % 0.0 in 0.0 W/m2 CLR
01:01 20.4 °F 9.9 °F 1007.7 in NW 25.9 mph 25.9 mph 51 % 0.0 in 0.0 W/m2 CLR
01:06 20.2 °F 10.3 °F 1007.7 in NNW 31.5 mph 31.5 mph 53 % 0.0 in 0.0 W/m2 CLR
01:11 20.1 °F 10.4 °F 1007.7 in NW 24.1 mph 24.1 mph 54 % 0.0 in 0.0 W/m2 CLR
01:16 19.9 °F 10.3 °F 1008.0 in NW 25.9 mph 25.9 mph 54 % 0.0 in 0.0 W/m2 CLR
01:21 19.7 °F 10.2 °F 1008.0 in WNW 20.4 mph 20.4 mph 54 % 0.0 in 0.0 W/m2 CLR
01:26 19.6 °F 10.3 °F 1008.0 in NNW 22.2 mph 22.2 mph 55 % 0.0 in 0.0 W/m2 CLR
01:31 19.4 °F 10.1 °F 1008.0 in WNW 16.7 mph 16.7 mph 55 % 0.0 in 0.0 W/m2 CLR
01:36 19.3 °F 10.0 °F 1008.0 in West 20.4 mph 20.4 mph 55 % 0.0 in 0.0 W/m2 CLR
01:41 19.2 °F 10.2 °F 1008.0 in WNW 18.5 mph 18.5 mph 56 % 0.0 in 0.0 W/m2 CLR
01:46 19.1 °F 10.1 °F 1008.0 in NNW 18.5 mph 18.5 mph 56 % 0.0 in 0.0 W/m2 CLR
01:51 18.9 °F 10.2 °F 1008.0 in WNW 18.5 mph 18.5 mph 57 % 0.0 in 0.0 W/m2 CLR
01:56 18.9 °F 10.4 °F 1008.0 in WNW 24.1 mph 24.1 mph 58 % 0.0 in 0.0 W/m2 CLR
02:01 18.8 °F 10.6 °F 1008.0 in NW 20.4 mph 20.4 mph 59 % 0.0 in 0.0 W/m2 CLR
02:06 18.7 °F 10.8 °F 1008.0 in NW 20.4 mph 20.4 mph 60 % 0.0 in 0.0 W/m2 CLR
02:11 18.6 °F 10.7 °F 1008.0 in NW 18.5 mph 18.5 mph 60 % 0.0 in 0.0 W/m2 CLR
02:16 18.5 °F 10.6 °F 1008.0 in WNW 17.7 mph 17.7 mph 60 % 0.0 in 0.0 W/m2 CLR
02:21 18.4 °F 10.5 °F 1008.0 in NNW 22.2 mph 22.2 mph 60 % 0.0 in 0.0 W/m2 CLR
02:26 18.3 °F 10.4 °F 1008.0 in WNW 18.5 mph 18.5 mph 60 % 0.0 in 0.0 W/m2 CLR
02:31 18.2 °F 10.6 °F 1008.4 in WNW 18.5 mph 18.5 mph 61 % 0.0 in 0.0 W/m2 CLR
02:36 18.1 °F 10.4 °F 1008.4 in WNW 14.8 mph 14.8 mph 61 % 0.0 in 0.0 W/m2 CLR
02:41 18.0 °F 10.4 °F 1008.4 in WNW 16.7 mph 16.7 mph 61 % 0.0 in 0.0 W/m2 CLR
02:46 17.9 °F 10.3 °F 1008.4 in WNW 14.8 mph 14.8 mph 61 % 0.0 in 0.0 W/m2 CLR
02:51 17.8 °F 10.4 °F 1008.4 in WNW 18.5 mph 18.5 mph 62 % 0.0 in 0.0 W/m2 CLR
02:56 17.8 °F 10.4 °F 1008.4 in West 13.0 mph 13.0 mph 62 % 0.0 in 0.0 W/m2 CLR
03:01 17.7 °F 10.1 °F 1008.4 in WSW 11.1 mph 11.1 mph 61 % 0.0 in 0.0 W/m2 CLR
03:06 17.6 °F 10.2 °F 1008.4 in West 16.7 mph 16.7 mph 62 % 0.0 in 0.0 W/m2 CLR
03:11 17.6 °F 9.9 °F 1008.4 in WNW 18.5 mph 18.5 mph 61 % 0.0 in 0.0 W/m2 CLR
03:16 17.4 °F 10.1 °F 1008.4 in WNW 16.7 mph 16.7 mph 62 % 0.0 in 0.0 W/m2 CLR
03:21 17.4 °F 10.1 °F 1008.4 in WNW 14.8 mph 14.8 mph 62 % 0.0 in 0.0 W/m2 CLR
03:26 17.4 °F 10.1 °F 1008.4 in West 18.5 mph 18.5 mph 62 % 0.0 in 0.0 W/m2 CLR
03:31 17.4 °F 10.3 °F 1008.4 in West 16.7 mph 16.7 mph 63 % 0.0 in 0.0 W/m2 CLR
03:36 17.3 °F 10.2 °F 1008.4 in West 7.4 mph 7.4 mph 63 % 0.0 in 0.0 W/m2 CLR
03:41 17.2 °F 10.1 °F 1008.7 in West 7.4 mph 7.4 mph 63 % 0.0 in 0.0 W/m2 CLR
03:43 17.2 °F 10.1 °F 1008.7 in West 16.7 mph 16.7 mph 63 % 0.0 in 0.0 W/m2 CLR
03:48 17.1 °F 10.2 °F 1008.7 in West 11.1 mph 11.1 mph 64 % 0.0 in 0.0 W/m2 CLR
03:53 17.0 °F 10.1 °F 1008.7 in West 16.7 mph 16.7 mph 64 % 0.0 in 0.0 W/m2 CLR
03:58 16.9 °F 10.3 °F 1008.4 in West 16.7 mph 16.7 mph 65 % 0.0 in 0.0 W/m2 CLR
04:03 16.8 °F 10.2 °F 1008.7 in West 20.4 mph 20.4 mph 65 % 0.0 in 0.0 W/m2 CLR
04:08 16.7 °F 10.1 °F 1008.7 in WNW 16.7 mph 16.7 mph 65 % 0.0 in 0.0 W/m2 CLR
04:13 16.7 °F 10.3 °F 1008.7 in WNW 18.5 mph 18.5 mph 66 % 0.0 in 0.0 W/m2 CLR
04:18 16.6 °F 10.2 °F 1008.7 in West 14.8 mph 14.8 mph 66 % 0.0 in 0.0 W/m2 CLR
04:23 16.5 °F 10.1 °F 1008.7 in West 18.5 mph 18.5 mph 66 % 0.0 in 0.0 W/m2 CLR
04:28 16.4 °F 10.3 °F 1008.7 in West 18.5 mph 18.5 mph 67 % 0.0 in 0.0 W/m2 CLR
04:33 16.4 °F 10.2 °F 1008.7 in West 18.5 mph 18.5 mph 67 % 0.0 in 0.0 W/m2 CLR
04:38 16.4 °F 10.2 °F 1008.4 in West 16.7 mph 16.7 mph 67 % 0.0 in 0.0 W/m2 CLR
04:43 16.4 °F 10.4 °F 1008.7 in WNW 18.5 mph 18.5 mph 68 % 0.0 in 0.0 W/m2 CLR
04:48 16.3 °F 10.3 °F 1008.7 in WNW 16.7 mph 16.7 mph 68 % 0.0 in 0.0 W/m2 CLR
04:53 16.2 °F 10.3 °F 1008.7 in WNW 16.7 mph 16.7 mph 68 % 0.0 in 0.0 W/m2 CLR
04:58 16.2 °F 10.3 °F 1008.7 in WNW 14.8 mph 14.8 mph 68 % 0.0 in 0.0 W/m2 CLR
05:03 16.2 °F 10.3 °F 1008.7 in WNW 14.8 mph 14.8 mph 68 % 0.0 in 0.0 W/m2 CLR
05:08 16.1 °F 10.4 °F 1008.7 in West 14.8 mph 14.8 mph 69 % 0.0 in 0.0 W/m2 CLR
05:13 16.1 °F 10.4 °F 1008.7 in WNW 14.8 mph 14.8 mph 69 % 0.0 in 0.0 W/m2 CLR
05:14 16.1 °F 10.4 °F 1008.7 in West 16.7 mph 16.7 mph 69 % 0.0 in 0.0 W/m2 CLR
05:19 16.0 °F 10.3 °F 1008.7 in NW 20.4 mph 20.4 mph 69 % 0.0 in 0.0 W/m2 CLR
05:24 15.9 °F 10.2 °F 1009.0 in West 18.5 mph 18.5 mph 69 % 0.0 in 0.0 W/m2 CLR
05:29 15.8 °F 10.2 °F 1009.0 in NW 14.8 mph 14.8 mph 69 % 0.0 in 0.0 W/m2 CLR
05:34 15.8 °F 10.1 °F 1009.0 in NW 9.3 mph 9.3 mph 69 % 0.0 in 0.0 W/m2 CLR
05:39 15.7 °F 10.1 °F 1009.0 in WNW 11.1 mph 11.1 mph 69 % 0.0 in 0.0 W/m2 CLR
05:44 15.6 °F 9.9 °F 1009.0 in West 9.3 mph 9.3 mph 69 % 0.0 in 0.0 W/m2 CLR
05:49 15.6 °F 10.2 °F 1009.0 in West 9.3 mph 9.3 mph 70 % 0.0 in 0.0 W/m2 CLR
05:54 15.6 °F 10.2 °F 1009.4 in WNW 14.8 mph 14.8 mph 70 % 0.0 in 0.0 W/m2 CLR
05:59 15.7 °F 10.5 °F 1009.4 in West 16.1 mph 16.1 mph 71 % 0.0 in 0.0 W/m2 CLR
06:04 15.8 °F 10.6 °F 1009.4 in West 18.5 mph 18.5 mph 71 % 0.0 in 0.0 W/m2 CLR
06:09 15.8 °F 10.3 °F 1009.4 in WNW 18.5 mph 18.5 mph 70 % 0.0 in 0.0 W/m2 CLR
06:14 15.8 °F 10.3 °F 1009.4 in West 14.8 mph 14.8 mph 70 % 0.0 in 0.0 W/m2 CLR
06:19 15.7 °F 10.2 °F 1009.4 in West 18.5 mph 18.5 mph 70 % 0.0 in 0.0 W/m2 CLR
06:24 15.6 °F 10.2 °F 1009.4 in West 14.8 mph 14.8 mph 70 % 0.0 in 0.0 W/m2 OVC
06:29 15.5 °F 10.3 °F 1009.4 in WNW 13.0 mph 13.0 mph 71 % 0.0 in 0.0 W/m2 OVC
06:34 15.4 °F 10.2 °F 1009.4 in West 13.0 mph 13.0 mph 71 % 0.0 in 5.0 W/m2 OVC
06:39 15.4 °F 10.2 °F 1009.4 in West 16.7 mph 16.7 mph 71 % 0.0 in 9.0 W/m2 BKN
06:44 15.3 °F 10.1 °F 1009.4 in WSW 16.7 mph 16.7 mph 71 % 0.0 in 12.0 W/m2 BKN
06:49 15.3 °F 10.1 °F 1009.4 in West 18.5 mph 18.5 mph 71 % 0.0 in 21.0 W/m2 BKN
06:54 15.4 °F 10.2 °F 1009.4 in West 19.3 mph 19.3 mph 71 % 0.0 in 28.0 W/m2 BKN
06:59 15.5 °F 10.3 °F 1009.4 in West 18.5 mph 18.5 mph 71 % 0.0 in 28.0 W/m2 BKN
07:04 15.6 °F 10.1 °F 1009.4 in WNW 18.5 mph 18.5 mph 70 % 0.0 in 23.0 W/m2 BKN
07:09 15.6 °F 10.1 °F 1009.7 in West 20.9 mph 20.9 mph 70 % 0.0 in 26.0 W/m2 BKN
07:14 15.6 °F 10.1 °F 1009.7 in WNW 20.4 mph 20.4 mph 70 % 0.0 in 42.0 W/m2 BKN
07:19 15.6 °F 9.9 °F 1009.7 in WNW 20.4 mph 20.4 mph 69 % 0.0 in 53.0 W/m2 SCT
07:24 15.7 °F 10.1 °F 1009.7 in West 20.4 mph 20.4 mph 69 % 0.0 in 65.0 W/m2 SCT
07:29 15.8 °F 9.9 °F 1009.7 in West 20.4 mph 20.4 mph 68 % 0.0 in 77.0 W/m2 FEW
07:34 15.8 °F 9.9 °F 1009.7 in WNW 27.4 mph 27.4 mph 68 % 0.0 in 91.0 W/m2 FEW
07:39 16.0 °F 9.9 °F 1009.4 in WNW 22.2 mph 22.2 mph 67 % 0.0 in 105.0 W/m2 CLR
07:44 16.1 °F 9.9 °F 1009.4 in WNW 20.4 mph 20.4 mph 67 % 0.0 in 123.0 W/m2 CLR
07:49 16.1 °F 9.8 °F 1009.4 in WNW 29.0 mph 29.0 mph 66 % 0.0 in 139.0 W/m2 CLR
07:54 16.2 °F 9.8 °F 1009.4 in NW 20.9 mph 20.9 mph 66 % 0.0 in 155.0 W/m2 CLR
07:59 16.3 °F 9.5 °F 1009.4 in NW 27.8 mph 27.8 mph 64 % 0.0 in 172.0 W/m2 CLR
08:04 16.3 °F 9.5 °F 1009.4 in WNW 29.6 mph 29.6 mph 64 % 0.0 in 188.0 W/m2 CLR
08:09 16.4 °F 9.4 °F 1009.4 in WNW 31.5 mph 31.5 mph 63 % 0.0 in 209.0 W/m2 CLR
08:14 16.6 °F 9.2 °F 1009.4 in NW 29.0 mph 29.0 mph 62 % 0.0 in 225.0 W/m2 CLR
08:19 16.7 °F 9.1 °F 1009.7 in NW 27.8 mph 27.8 mph 61 % 0.0 in 241.0 W/m2 CLR
08:24 16.9 °F 9.1 °F 1009.7 in WNW 31.5 mph 31.5 mph 60 % 0.0 in 255.0 W/m2 CLR
08:29 16.9 °F 9.1 °F 1009.7 in WNW 33.3 mph 33.3 mph 60 % 0.0 in 271.0 W/m2 CLR
08:34 16.9 °F 9.1 °F 1009.7 in WNW 20.4 mph 20.4 mph 60 % 0.0 in 287.0 W/m2 CLR
08:39 17.2 °F 9.1 °F 1009.7 in WNW 24.1 mph 24.1 mph 59 % 0.0 in 301.0 W/m2 CLR
08:44 17.3 °F 9.0 °F 1009.7 in NW 25.9 mph 25.9 mph 58 % 0.0 in 316.0 W/m2 CLR
08:49 17.4 °F 8.8 °F 1010.0 in NNW 31.5 mph 31.5 mph 57 % 0.0 in 334.0 W/m2 CLR
08:54 17.5 °F 8.6 °F 1009.7 in WNW 27.8 mph 27.8 mph 56 % 0.0 in 345.0 W/m2 CLR
08:59 17.6 °F 8.7 °F 1009.7 in NW 31.5 mph 31.5 mph 56 % 0.0 in 362.0 W/m2 CLR
09:04 17.5 °F 8.3 °F 1009.7 in WNW 31.5 mph 31.5 mph 55 % 0.0 in 380.0 W/m2 CLR
09:09 17.8 °F 8.9 °F 1010.0 in NW 18.5 mph 18.5 mph 56 % 0.0 in 394.0 W/m2 CLR
09:14 18.1 °F 8.6 °F 1009.7 in NW 25.9 mph 25.9 mph 54 % 0.0 in 413.0 W/m2 CLR
09:19 18.0 °F 8.6 °F 1009.7 in WNW 24.1 mph 24.1 mph 54 % 0.0 in 427.0 W/m2 CLR
09:24 18.0 °F 8.6 °F 1009.7 in NW 24.1 mph 24.1 mph 54 % 0.0 in 443.0 W/m2 CLR
09:29 18.1 °F 8.7 °F 1009.7 in WNW 29.6 mph 29.6 mph 54 % 0.0 in 455.0 W/m2 CLR
09:34 18.1 °F 8.4 °F 1009.7 in WNW 27.8 mph 27.8 mph 53 % 0.0 in 471.0 W/m2 CLR
09:39 18.2 °F 8.4 °F 1009.7 in WNW 20.4 mph 20.4 mph 53 % 0.0 in 490.0 W/m2 CLR
09:44 18.4 °F 8.4 °F 1009.7 in NW 22.2 mph 22.2 mph 52 % 0.0 in 504.0 W/m2 CLR
09:49 18.4 °F 8.7 °F 1009.7 in WNW 18.5 mph 18.5 mph 53 % 0.0 in 519.0 W/m2 CLR
09:54 18.5 °F 8.4 °F 1009.7 in NNW 25.9 mph 25.9 mph 52 % 0.0 in 533.0 W/m2 CLR
09:59 18.7 °F 8.9 °F 1009.7 in NW 29.6 mph 29.6 mph 53 % 0.0 in 550.0 W/m2 CLR
10:04 18.8 °F 8.8 °F 1009.7 in WNW 18.5 mph 18.5 mph 52 % 0.0 in 563.0 W/m2 CLR
10:09 18.9 °F 8.0 °F 1009.7 in NNW 31.5 mph 31.5 mph 49 % 0.0 in 578.0 W/m2 CLR
10:14 18.8 °F 8.2 °F 1009.7 in NNW 29.6 mph 29.6 mph 50 % 0.0 in 592.0 W/m2 CLR
10:20 18.9 °F 8.6 °F 1009.7 in NNW 19.3 mph 19.3 mph 51 % 0.0 in 610.0 W/m2 CLR
10:25 19.2 °F 8.5 °F 1009.7 in WNW 31.5 mph 31.5 mph 50 % 0.0 in 638.0 W/m2 CLR
10:30 19.1 °F 8.4 °F 1009.7 in NW 30.6 mph 30.6 mph 50 % 0.0 in 649.0 W/m2 CLR
10:35 19.3 °F 8.3 °F 1009.7 in NW 25.9 mph 25.9 mph 49 % 0.0 in 663.0 W/m2 CLR
10:40 19.4 °F 8.4 °F 1009.4 in North 20.9 mph 20.9 mph 49 % 0.0 in 686.0 W/m2 CLR
10:45 19.5 °F 8.5 °F 1009.4 in NW 20.4 mph 20.4 mph 49 % 0.0 in 684.0 W/m2 CLR
10:50 19.6 °F 8.6 °F 1009.7 in WNW 20.4 mph 20.4 mph 49 % 0.0 in 738.0 W/m2 CLR
10:55 19.7 °F 8.3 °F 1009.7 in NNW 24.1 mph 24.1 mph 48 % 0.0 in 786.0 W/m2 CLR
11:00 19.6 °F 8.3 °F 1009.4 in West 27.8 mph 27.8 mph 48 % 0.0 in 809.0 W/m2 CLR
11:05 19.6 °F 8.6 °F 1009.7 in NW 29.0 mph 29.0 mph 49 % 0.0 in 134.0 W/m2 CLR
11:10 19.6 °F 8.6 °F 1009.7 in NW 16.7 mph 17.2 mph 49 % 0.0 in 809.0 W/m2 CLR
11:15 19.9 °F 8.6 °F 1009.7 in NW 22.2 mph 22.2 mph 48 % 0.0 in 250.0 W/m2 CLR
11:20 19.9 °F 8.6 °F 1009.7 in NW 24.1 mph 24.1 mph 48 % 0.0 in 842.0 W/m2 CLR
11:25 20.3 °F 8.3 °F 1009.7 in NNW 25.7 mph 25.7 mph 46 % 0.0 in 921.0 W/m2 CLR
11:30 20.2 °F 7.9 °F 1009.7 in NNW 27.8 mph 27.8 mph 45 % 0.0 in 185.0 W/m2 CLR
11:35 19.9 °F 7.9 °F 1009.7 in WNW 27.8 mph 27.8 mph 46 % 0.0 in 202.0 W/m2 CLR
11:40 20.3 °F 8.3 °F 1009.7 in NNW 31.5 mph 31.5 mph 46 % 0.0 in 359.0 W/m2 CLR
11:45 20.3 °F 8.3 °F 1009.7 in NW 25.9 mph 25.9 mph 46 % 0.0 in 232.0 W/m2 CLR
11:50 20.1 °F 8.1 °F 1009.7 in NW 20.4 mph 20.4 mph 46 % 0.0 in 962.0 W/m2 CLR
11:55 20.6 °F 7.2 °F 1009.7 in WNW 31.5 mph 31.5 mph 42 % 0.0 in 1011.0 W/m2 CLR
12:00 20.8 °F 7.8 °F 1009.7 in WNW 24.1 mph 24.1 mph 43 % 0.0 in 963.0 W/m2 CLR
12:05 21.1 °F 7.3 °F 1009.7 in NNW 33.3 mph 33.3 mph 41 % 0.0 in 1005.0 W/m2 CLR
12:10 21.2 °F 6.7 °F 1009.4 in WNW 31.5 mph 31.5 mph 39 % 0.0 in 1049.0 W/m2 CLR
12:15 21.5 °F 6.9 °F 1009.7 in WNW 38.9 mph 38.9 mph 39 % 0.0 in 986.0 W/m2 CLR
12:20 21.4 °F 6.5 °F 1009.4 in West 27.4 mph 27.8 mph 38 % 0.0 in 953.0 W/m2 CLR
12:25 21.7 °F 6.4 °F 1009.7 in West 31.5 mph 31.5 mph 37 % 0.0 in 1004.0 W/m2 CLR
12:30 21.7 °F 6.3 °F 1009.7 in NW 40.7 mph 40.7 mph 37 % 0.0 in 1004.0 W/m2 CLR
12:35 21.8 °F 6.5 °F 1009.7 in WNW 33.8 mph 33.8 mph 37 % 0.0 in 1023.0 W/m2 CLR
12:40 22.1 °F 5.9 °F 1009.7 in WNW 40.2 mph 40.2 mph 35 % 0.0 in 1032.0 W/m2 CLR
12:45 22.1 °F 5.9 °F 1009.7 in West 29.6 mph 29.6 mph 35 % 0.0 in 1137.0 W/m2 CLR
12:50 21.9 °F 5.3 °F 1009.7 in West 37.0 mph 37.0 mph 34 % 0.0 in 200.0 W/m2 CLR
12:55 21.9 °F 5.7 °F 1009.7 in WNW 20.4 mph 21.6 mph 35 % 0.0 in 1042.0 W/m2 CLR
13:00 22.6 °F 5.5 °F 1009.7 in West 25.9 mph 28.0 mph 33 % 0.0 in 1118.0 W/m2 CLR
13:05 23.0 °F 5.4 °F 1009.7 in NNW 38.9 mph 38.9 mph 32 % 0.0 in 1056.0 W/m2 CLR
13:10 22.6 °F 4.6 °F 1009.4 in West 46.3 mph 46.3 mph 31 % 0.0 in 1055.0 W/m2 CLR
13:15 22.8 °F 5.7 °F 1009.7 in West 31.5 mph 31.5 mph 33 % 0.0 in 1044.0 W/m2 CLR
13:20 22.7 °F 5.1 °F 1009.4 in West 40.7 mph 40.7 mph 32 % 0.0 in 1046.0 W/m2 CLR
13:25 22.9 °F 4.9 °F 1009.7 in NW 44.4 mph 44.4 mph 31 % 0.0 in 991.0 W/m2 CLR
13:30 23.1 °F 4.6 °F 1009.7 in NW 42.6 mph 42.6 mph 30 % 0.0 in 990.0 W/m2 CLR
13:35 23.1 °F 4.6 °F 1009.7 in WNW 42.6 mph 42.6 mph 30 % 0.0 in 988.0 W/m2 CLR
13:40 23.0 °F 4.5 °F 1009.7 in NW 46.3 mph 46.3 mph 30 % 0.0 in 998.0 W/m2 CLR
13:45 23.1 °F 4.6 °F 1009.7 in WNW 42.6 mph 42.6 mph 30 % 0.0 in 1009.0 W/m2 CLR
13:50 22.8 °F 4.8 °F 1009.7 in West 33.3 mph 33.3 mph 31 % 0.0 in 988.0 W/m2 CLR
13:55 22.9 °F 4.8 °F 1009.7 in WNW 40.7 mph 40.7 mph 31 % 0.0 in 1053.0 W/m2 CLR
14:00 23.0 °F 4.9 °F 1009.4 in NW 32.2 mph 32.2 mph 31 % 0.0 in 1005.0 W/m2 CLR
14:05 23.3 °F 4.8 °F 1009.4 in West 40.7 mph 40.7 mph 30 % 0.0 in 1007.0 W/m2 CLR
14:10 23.4 °F 4.9 °F 1009.4 in NNW 37.0 mph 37.0 mph 30 % 0.0 in 1025.0 W/m2 CLR
14:11 23.4 °F 4.9 °F 1009.4 in North 37.0 mph 37.0 mph 30 % 0.0 in 1030.0 W/m2 CLR
14:16 23.9 °F 4.8 °F 1009.4 in West 25.9 mph 25.9 mph 29 % 0.0 in 1048.0 W/m2 CLR
14:21 23.7 °F 4.6 °F 1009.4 in NW 40.7 mph 40.7 mph 29 % 0.0 in 1055.0 W/m2 CLR
14:26 23.7 °F 4.6 °F 1009.4 in NNW 35.4 mph 35.4 mph 29 % 0.0 in 1062.0 W/m2 CLR
14:31 23.6 °F 4.5 °F 1009.4 in WNW 37.0 mph 37.0 mph 29 % 0.0 in 1116.0 W/m2 CLR
14:36 23.0 °F 4.9 °F 1009.4 in WNW 40.7 mph 40.7 mph 31 % 0.0 in 1148.0 W/m2 CLR
14:41 22.9 °F 4.9 °F 1009.4 in WNW 29.6 mph 29.6 mph 31 % 0.0 in 269.0 W/m2 CLR
14:46 22.6 °F 4.6 °F 1009.4 in WNW 22.2 mph 22.2 mph 31 % 0.0 in 374.0 W/m2 CLR
14:51 23.0 °F 4.9 °F 1009.0 in NNW 46.3 mph 46.3 mph 31 % 0.0 in 1162.0 W/m2 CLR
14:56 23.4 °F 4.3 °F 1009.0 in NW 31.5 mph 31.5 mph 29 % 0.0 in 381.0 W/m2 CLR
15:01 23.1 °F 5.1 °F 1009.0 in WNW 31.5 mph 31.5 mph 31 % 0.0 in 234.0 W/m2 CLR
15:06 23.3 °F 4.8 °F 1008.7 in WNW 29.6 mph 29.6 mph 30 % 0.0 in 1078.0 W/m2 CLR
15:11 24.1 °F 4.9 °F 1008.7 in NW 27.8 mph 27.8 mph 29 % 0.0 in 1004.0 W/m2 CLR
15:16 24.3 °F 5.1 °F 1008.7 in NNW 29.6 mph 29.6 mph 29 % 0.0 in 969.0 W/m2 CLR
15:21 24.4 °F 4.7 °F 1008.7 in NW 37.0 mph 37.0 mph 28 % 0.0 in 944.0 W/m2 CLR
15:26 24.5 °F 4.8 °F 1009.0 in WNW 37.0 mph 37.0 mph 28 % 0.0 in 930.0 W/m2 CLR
15:31 24.4 °F 5.2 °F 1008.7 in West 29.6 mph 29.6 mph 29 % 0.0 in 940.0 W/m2 CLR
15:36 24.2 °F 5.0 °F 1008.7 in NW 31.5 mph 31.5 mph 29 % 0.0 in 916.0 W/m2 CLR
15:41 24.5 °F 4.8 °F 1008.7 in NNW 29.6 mph 29.6 mph 28 % 0.0 in 940.0 W/m2 CLR
15:46 24.8 °F 5.0 °F 1008.7 in NW 27.8 mph 27.8 mph 28 % 0.0 in 940.0 W/m2 CLR
15:51 24.5 °F 4.8 °F 1008.4 in NW 27.8 mph 27.8 mph 28 % 0.0 in 939.0 W/m2 CLR
15:56 24.6 °F 4.9 °F 1008.4 in NW 37.0 mph 37.0 mph 28 % 0.0 in 895.0 W/m2 CLR
16:01 24.7 °F 4.9 °F 1008.4 in NNW 22.2 mph 22.2 mph 28 % 0.0 in 893.0 W/m2 CLR
16:06 25.1 °F 4.7 °F 1008.4 in NW 27.8 mph 27.8 mph 27 % 0.0 in 875.0 W/m2 CLR
16:11 24.9 °F 5.1 °F 1008.4 in NW 29.6 mph 29.6 mph 28 % 0.0 in 884.0 W/m2 CLR
16:16 24.5 °F 4.3 °F 1008.4 in West 24.1 mph 24.1 mph 27 % 0.0 in 984.0 W/m2 CLR
16:21 24.4 °F 4.7 °F 1008.4 in NW 35.2 mph 35.2 mph 28 % 0.0 in 953.0 W/m2 CLR
16:26 24.7 °F 4.4 °F 1008.0 in NW 18.5 mph 18.5 mph 27 % 0.0 in 898.0 W/m2 CLR
16:31 24.9 °F 4.6 °F 1008.0 in North 44.4 mph 44.4 mph 27 % 0.0 in 856.0 W/m2 CLR
16:36 25.1 °F 4.2 °F 1008.0 in WNW 29.6 mph 29.6 mph 26 % 0.0 in 846.0 W/m2 CLR
16:41 24.6 °F 3.8 °F 1008.0 in NW 27.8 mph 27.8 mph 26 % 0.0 in 141.0 W/m2 CLR
16:46 24.5 °F 4.3 °F 1008.0 in NNW 27.4 mph 27.4 mph 27 % 0.0 in 185.0 W/m2 CLR
16:51 24.2 °F 4.0 °F 1008.0 in WNW 27.8 mph 27.8 mph 27 % 0.0 in 178.0 W/m2 CLR
16:56 24.7 °F 4.4 °F 1007.7 in NW 31.5 mph 31.5 mph 27 % 0.0 in 886.0 W/m2 CLR
17:01 25.2 °F 4.3 °F 1007.7 in North 22.2 mph 22.2 mph 26 % 0.0 in 840.0 W/m2 CLR
17:02 25.3 °F 4.4 °F 1007.7 in North 22.2 mph 22.2 mph 26 % 0.0 in 840.0 W/m2 CLR
17:07 25.5 °F 4.0 °F 1007.7 in North 24.1 mph 24.1 mph 25 % 0.0 in 803.0 W/m2 CLR
17:12 25.7 °F 4.7 °F 1007.7 in WNW 25.9 mph 25.9 mph 26 % 0.0 in 803.0 W/m2 CLR
17:17 24.9 °F 3.5 °F 1007.7 in WNW 29.6 mph 29.6 mph 25 % 0.0 in 156.0 W/m2 CLR
17:22 24.2 °F 3.5 °F 1007.7 in NW 29.6 mph 29.6 mph 26 % 0.0 in 160.0 W/m2 CLR
21:03 23.3 °F 2.7 °F 1008.4 in North 25.7 mph 25.7 mph 26 % 0.0 in 26.0 W/m2 BKN
21:08 23.1 °F 2.6 °F 1008.4 in North 20.4 mph 20.4 mph 26 % 0.0 in 21.0 W/m2 BKN
21:13 22.9 °F 2.3 °F 1008.4 in North 13.0 mph 13.0 mph 26 % 0.0 in 16.0 W/m2 BKN
21:18 22.7 °F 2.2 °F 1008.4 in NE 16.1 mph 16.1 mph 26 % 0.0 in 14.0 W/m2 BKN
21:23 22.6 °F 2.7 °F 1008.4 in North 18.5 mph 18.5 mph 27 % 0.0 in 11.0 W/m2 BKN
21:28 22.5 °F 2.6 °F 1008.7 in NNW 13.0 mph 13.0 mph 27 % 0.0 in 5.0 W/m2 OVC
21:33 22.4 °F 2.4 °F 1008.7 in NNW 3.7 mph 3.7 mph 27 % 0.0 in 0.0 W/m2 OVC
21:38 22.3 °F 2.4 °F 1008.7 in Calm     27 % 0.0 in 0.0 W/m2 OVC
21:39 22.3 °F 2.4 °F 1008.7 in Calm     27 % 0.0 in 0.0 W/m2 OVC
21:44 22.2 °F 2.8 °F 1008.7 in Calm     28 % 0.0 in 0.0 W/m2 OVC
21:49 22.1 °F 2.7 °F 1008.7 in Calm     28 % 0.0 in 0.0 W/m2 CLR
21:54 22.1 °F 2.7 °F 1008.7 in Calm     28 % 0.0 in 0.0 W/m2 CLR
21:59 21.9 °F 2.6 °F 1009.0 in Calm     28 % 0.0 in 0.0 W/m2 CLR
22:04 21.8 °F 3.0 °F 1009.0 in Calm     29 % 0.0 in 0.0 W/m2 CLR
22:09 21.7 °F 3.4 °F 1009.0 in Calm     30 % 0.0 in 0.0 W/m2 CLR
22:14 21.4 °F 3.1 °F 1009.0 in Calm     30 % 0.0 in 0.0 W/m2 CLR
22:19 21.3 °F 3.1 °F 1009.4 in Calm     30 % 0.0 in 0.0 W/m2 CLR
22:24 21.2 °F 2.9 °F 1009.4 in Calm     30 % 0.0 in 0.0 W/m2 CLR
22:29 21.2 °F 3.3 °F 1009.4 in Calm     31 % 0.0 in 0.0 W/m2 CLR
22:34 21.2 °F 3.3 °F 1009.4 in Calm     31 % 0.0 in 0.0 W/m2 CLR
22:44 21.0 °F 3.2 °F 1009.7 in Calm     31 % 0.0 in 0.0 W/m2 CLR
22:49 21.0 °F 3.2 °F 1009.7 in Calm     31 % 0.0 in 0.0 W/m2 CLR
22:54 21.0 °F 3.2 °F 1009.7 in Calm     31 % 0.0 in 0.0 W/m2 CLR
22:59 21.0 °F 3.2 °F 1009.7 in Calm     31 % 0.0 in 0.0 W/m2 CLR
23:04 21.1 °F 3.3 °F 1010.0 in Calm     31 % 0.0 in 0.0 W/m2 CLR
23:09 20.9 °F 3.6 °F 1010.0 in Calm     32 % 0.0 in 0.0 W/m2 CLR
23:14 20.8 °F 3.4 °F 1010.0 in Calm     32 % 0.0 in 0.0 W/m2 CLR
23:19 20.6 °F 3.7 °F 1010.0 in Calm     33 % 0.0 in 0.0 W/m2 CLR
23:24 20.4 °F 3.6 °F 1010.0 in NW 5.6 mph 5.6 mph 33 % 0.0 in 0.0 W/m2 CLR
23:29 20.5 °F 3.7 °F 1010.0 in NNW 8.0 mph 8.0 mph 33 % 0.0 in 0.0 W/m2 CLR
23:34 20.3 °F 3.9 °F 1010.0 in NW 6.4 mph 6.4 mph 34 % 0.0 in 0.0 W/m2 CLR
23:39 19.9 °F 4.0 °F 1010.0 in NW 5.6 mph 5.6 mph 35 % 0.0 in 0.0 W/m2 CLR
23:44 19.6 °F 3.7 °F 1010.0 in WNW 5.6 mph 5.6 mph 35 % 0.0 in 0.0 W/m2 CLR
23:49 19.4 °F 3.6 °F 1010.0 in WNW 5.6 mph 5.6 mph 35 % 0.0 in 0.0 W/m2 CLR
23:54 19.4 °F 3.6 °F 1010.0 in WNW 1.9 mph 1.9 mph 35 % 0.0 in 0.0 W/m2 CLR
23:59 19.3 °F 3.5 °F 1010.0 in WNW 1.9 mph 1.9 mph 35 % 0.0 in 0.0 W/m2 CLR
Lo Temps de Massalio
Compliments of Weather Underground - 1 mb